Flight Track Log - Related Links

Times and Time Zones

All times are in EDT time to prevent confusion due to time zone crossing. See the SKW6194 flight status page for this flight to view local times or setup timezone preferences in your user account.

Time Position Orientation Groundspeed Altitude Reporting Facility
EDT Latitude Longitude Course Direction KTS MPH feet Rate Location/Type
Thu 09:03:22 AM 39.2778 -106.9144 104° East 222 255 10,200  Level Denver Center
Thu 09:04:23 AM 39.2942 -106.9956 285° West 230 265 12,500 2,311 Climbing Denver Center
Thu 09:05:24 AM 39.3458 -107.0103 348° North 239 275 14,900 2,115 Climbing Denver Center
Thu 09:06:25 AM 39.3606 -106.9203 78° East 264 304 16,800 1,230 Climbing Denver Center
Thu 09:07:26 AM 39.3597 -106.8044 90° East 312 359 17,400 1,279 Climbing Denver Center
Thu 09:08:00 AM 39.3572 -106.5024 104° East  Level FlightAware Approximate
Thu 09:08:27 AM 39.3569 -106.6500 91° East 352 405 19,400  Level Denver Center
Thu 09:09:28 AM 39.3536 -106.5119 92° East 377 434 21,000 787 Climbing Denver Center
Thu 09:10:29 AM 39.3358 -106.3586 98° East 409 471 21,000  Level Denver Center
Thu 09:11:30 AM 39.3128 -106.1978 100° East 436 502 21,000 -49 Level Denver Center
Thu 09:12:32 AM 39.2917 -106.0375 100° East 446 513 20,900 -293 Descending Denver Center
Thu 09:13:33 AM 39.3022 -105.8728 85° East 457 526 20,400 -590 Descending Denver Center
Thu 09:14:34 AM 39.3114 -105.7103 86° East 456 525 19,700 -689 Descending Denver Center
Thu 09:15:35 AM 39.3567 -105.5733 67° East 431 496 19,000 -738 Descending Denver Center
Thu 09:16:36 AM 39.3844 -105.4292 76° East 386 444 18,200 -934 Descending Denver Center
Thu 09:17:37 AM 39.4006 -105.2914 81° East 382 440 17,100 -1,230 Descending Denver Center
Thu 09:18:38 AM 39.4219 -105.1508 79° East 373 429 15,700 -1,230 Descending Denver Center
Thu 09:19:39 AM 39.4400 -105.0228 80° East 367 422 14,600 -787 Descending Denver Center
Thu 09:20:40 AM 39.4472 -104.9100 85° East 318 366 14,100 -639 Descending Denver Center
Thu 09:21:41 AM 39.4542 -104.8133 85° East 275 316 13,300 -1,033 Descending Denver Center
Thu 09:22:42 AM 39.4931 -104.7319 58° Northeast 252 290 12,000 -1,230 Descending Denver Center
Thu 09:23:43 AM 39.5539 -104.6906 28° Northeast 249 287 10,800 -1,180 Descending Denver Center
Thu 09:24:44 AM 39.6178 -104.6628 19° North 252 290 9,600 -1,366 Descending Denver Center
Thu 09:25:46 AM 39.6867 -104.6625 360° North 247 284 8,000 -1,366 Descending Denver Center
Thu 09:26:47 AM 39.7586 -104.6614 North 240 276 6,800 -1,033 Descending Denver Center
Thu 09:27:48 AM 39.8031 -104.6608 North 160 184 5,900 -689 Descending Denver Center
Thu 09:28:49 AM 39.8456 -104.6600 North 150 173 5,400 -492 Descending Denver Center
Thu 09:30:00 AM 39.8500 -104.6667 North  Level FlightAware Approximate
Thu 09:37:00 AM 39.8617 -104.6732 North  Level Estimated
Thu 09:38:00 AM 39.8617 -104.6732 North  Level Estimated
Thu 09:39:00 AM 39.8617 -104.6732 North  Level Estimated

Login

Don't have an account? Register now (free) for customized features, flight alerts, and more!